sensor_id;sensor_type;location;lat;lon;timestamp;pressure;altitude;pressure_sealevel;temperature;humidity
76011;BME280;64701;43.536;1.478;2023-08-01T00:01:21;99494.31;;;22.43;63.65
76011;BME280;64701;43.536;1.478;2023-08-01T00:03:47;99498.34;;;22.35;64.81
76011;BME280;64701;43.536;1.478;2023-08-01T00:06:12;99498.09;;;22.21;66.44
76011;BME280;64701;43.536;1.478;2023-08-01T00:08:38;99500.47;;;22.13;66.44
76011;BME280;64701;43.536;1.478;2023-08-01T00:11:03;99496.72;;;22.14;65.85
76011;BME280;64701;43.536;1.478;2023-08-01T00:13:28;99494.03;;;22.14;65.50
76011;BME280;64701;43.536;1.478;2023-08-01T00:15:54;99494.28;;;22.07;66.00
76011;BME280;64701;43.536;1.478;2023-08-01T00:18:19;99491.31;;;22.09;66.74
76011;BME280;64701;43.536;1.478;2023-08-01T00:20:44;99487.25;;;22.06;66.99
76011;BME280;64701;43.536;1.478;2023-08-01T00:23:09;99496.97;;;22.02;67.26
76011;BME280;64701;43.536;1.478;2023-08-01T00:25:35;99500.19;;;21.99;66.93
76011;BME280;64701;43.536;1.478;2023-08-01T00:28:00;99495.28;;;21.91;67.56
76011;BME280;64701;43.536;1.478;2023-08-01T00:30:25;99491.50;;;21.87;66.98
76011;BME280;64701;43.536;1.478;2023-08-01T00:32:50;99490.41;;;21.83;68.07
76011;BME280;64701;43.536;1.478;2023-08-01T00:35:16;99489.84;;;21.71;68.30
76011;BME280;64701;43.536;1.478;2023-08-01T00:37:42;99479.59;;;21.63;69.21
76011;BME280;64701;43.536;1.478;2023-08-01T00:40:07;99487.38;;;21.54;69.16
76011;BME280;64701;43.536;1.478;2023-08-01T00:42:35;99486.31;;;21.60;69.06
76011;BME280;64701;43.536;1.478;2023-08-01T00:45:00;99484.91;;;21.52;69.35
76011;BME280;64701;43.536;1.478;2023-08-01T00:47:25;99483.03;;;21.48;70.04
76011;BME280;64701;43.536;1.478;2023-08-01T00:49:51;99477.38;;;21.44;70.05
76011;BME280;64701;43.536;1.478;2023-08-01T00:52:16;99476.25;;;21.40;69.98
76011;BME280;64701;43.536;1.478;2023-08-01T00:54:42;99484.88;;;21.37;70.04
76011;BME280;64701;43.536;1.478;2023-08-01T00:57:07;99471.91;;;21.34;69.36
76011;BME280;64701;43.536;1.478;2023-08-01T00:59:33;99475.94;;;21.27;70.20
76011;BME280;64701;43.536;1.478;2023-08-01T01:01:59;99473.75;;;21.24;70.31
76011;BME280;64701;43.536;1.478;2023-08-01T01:04:25;99475.88;;;21.16;70.84
76011;BME280;64701;43.536;1.478;2023-08-01T01:06:52;99478.84;;;21.15;70.55
76011;BME280;64701;43.536;1.478;2023-08-01T01:09:18;99473.13;;;21.11;71.11
76011;BME280;64701;43.536;1.478;2023-08-01T01:11:44;99479.31;;;21.07;71.60
76011;BME280;64701;43.536;1.478;2023-08-01T01:14:10;99483.00;;;20.96;72.40
76011;BME280;64701;43.536;1.478;2023-08-01T01:16:35;99483.50;;;20.93;72.21
76011;BME280;64701;43.536;1.478;2023-08-01T01:19:00;99489.94;;;20.87;73.06
76011;BME280;64701;43.536;1.478;2023-08-01T01:21:25;99484.25;;;20.78;73.66
76011;BME280;64701;43.536;1.478;2023-08-01T01:23:51;99472.69;;;20.83;71.69
76011;BME280;64701;43.536;1.478;2023-08-01T01:26:17;99483.44;;;20.77;73.49
76011;BME280;64701;43.536;1.478;2023-08-01T01:28:47;99476.66;;;20.75;73.59
76011;BME280;64701;43.536;1.478;2023-08-01T01:31:13;99465.38;;;20.73;73.13
76011;BME280;64701;43.536;1.478;2023-08-01T01:33:38;99476.63;;;20.70;74.24
76011;BME280;64701;43.536;1.478;2023-08-01T01:36:04;99473.94;;;20.70;74.28
76011;BME280;64701;43.536;1.478;2023-08-01T01:38:29;99470.97;;;20.66;75.00
76011;BME280;64701;43.536;1.478;2023-08-01T01:40:54;99475.81;;;20.69;74.21
76011;BME280;64701;43.536;1.478;2023-08-01T01:43:20;99474.25;;;20.73;73.13
76011;BME280;64701;43.536;1.478;2023-08-01T01:45:45;99469.41;;;20.75;73.98
76011;BME280;64701;43.536;1.478;2023-08-01T01:48:10;99467.81;;;20.79;73.86
76011;BME280;64701;43.536;1.478;2023-08-01T01:50:36;99475.88;;;20.79;74.12
76011;BME280;64701;43.536;1.478;2023-08-01T01:53:01;99475.13;;;20.84;73.71
76011;BME280;64701;43.536;1.478;2023-08-01T01:55:26;99481.59;;;20.83;73.84
76011;BME280;64701;43.536;1.478;2023-08-01T01:57:51;99489.84;;;20.71;74.87
76011;BME280;64701;43.536;1.478;2023-08-01T02:00:17;99482.84;;;20.70;75.47
76011;BME280;64701;43.536;1.478;2023-08-01T02:02:42;99479.31;;;20.65;75.34
76011;BME280;64701;43.536;1.478;2023-08-01T02:05:07;99478.47;;;20.64;75.43
76011;BME280;64701;43.536;1.478;2023-08-01T02:07:32;99475.72;;;20.54;77.01
76011;BME280;64701;43.536;1.478;2023-08-01T02:09:59;99480.06;;;20.55;76.04
76011;BME280;64701;43.536;1.478;2023-08-01T02:12:24;99480.34;;;20.59;75.96
76011;BME280;64701;43.536;1.478;2023-08-01T02:14:49;99483.28;;;20.57;76.26
76011;BME280;64701;43.536;1.478;2023-08-01T02:17:15;99480.50;;;20.47;77.84
76011;BME280;64701;43.536;1.478;2023-08-01T02:19:41;99477.59;;;20.54;76.24
76011;BME280;64701;43.536;1.478;2023-08-01T02:22:06;99477.06;;;20.57;76.12
76011;BME280;64701;43.536;1.478;2023-08-01T02:24:31;99487.09;;;20.61;76.28
76011;BME280;64701;43.536;1.478;2023-08-01T02:26:56;99473.91;;;20.65;76.17
76011;BME280;64701;43.536;1.478;2023-08-01T02:29:22;99472.50;;;20.57;77.62
76011;BME280;64701;43.536;1.478;2023-08-01T02:31:47;99469.81;;;20.57;76.59
76011;BME280;64701;43.536;1.478;2023-08-01T02:34:12;99472.44;;;20.47;77.70
76011;BME280;64701;43.536;1.478;2023-08-01T02:36:38;99464.66;;;20.51;76.29
76011;BME280;64701;43.536;1.478;2023-08-01T02:39:05;99472.69;;;20.46;77.33
76011;BME280;64701;43.536;1.478;2023-08-01T02:41:30;99474.34;;;20.52;76.91
76011;BME280;64701;43.536;1.478;2023-08-01T02:43:56;99477.34;;;20.55;76.62
76011;BME280;64701;43.536;1.478;2023-08-01T02:46:21;99471.91;;;20.50;78.66
76011;BME280;64701;43.536;1.478;2023-08-01T02:48:48;99469.81;;;20.57;76.69
76011;BME280;64701;43.536;1.478;2023-08-01T02:51:13;99464.94;;;20.49;77.68
76011;BME280;64701;43.536;1.478;2023-08-01T02:53:38;99472.44;;;20.47;78.49
76011;BME280;64701;43.536;1.478;2023-08-01T02:56:06;99468.97;;;20.52;77.32
76011;BME280;64701;43.536;1.478;2023-08-01T02:58:33;99463.91;;;20.55;76.62
76011;BME280;64701;43.536;1.478;2023-08-01T03:00:59;99455.88;;;20.60;76.57
76011;BME280;64701;43.536;1.478;2023-08-01T03:03:24;99460.13;;;20.56;77.34
76011;BME280;64701;43.536;1.478;2023-08-01T03:05:49;99454.25;;;20.59;77.13
76011;BME280;64701;43.536;1.478;2023-08-01T03:08:14;99454.25;;;20.59;77.22
76011;BME280;64701;43.536;1.478;2023-08-01T03:10:41;99450.19;;;20.62;76.78
76011;BME280;64701;43.536;1.478;2023-08-01T03:13:07;99443.97;;;20.56;77.38
76011;BME280;64701;43.536;1.478;2023-08-01T03:15:32;99425.13;;;20.51;77.64
76011;BME280;64701;43.536;1.478;2023-08-01T03:17:57;99423.25;;;20.52;77.34
76011;BME280;64701;43.536;1.478;2023-08-01T03:20:23;99420.56;;;20.52;76.55
76011;BME280;64701;43.536;1.478;2023-08-01T03:22:48;99431.06;;;20.53;75.72
76011;BME280;64701;43.536;1.478;2023-08-01T03:25:13;99432.13;;;20.52;76.83
76011;BME280;64701;43.536;1.478;2023-08-01T03:27:39;99432.34;;;20.46;77.54
76011;BME280;64701;43.536;1.478;2023-08-01T03:30:04;99431.28;;;20.47;77.14
76011;BME280;64701;43.536;1.478;2023-08-01T03:32:30;99426.72;;;20.47;76.52
76011;BME280;64701;43.536;1.478;2023-08-01T03:34:55;99428.34;;;20.48;76.95
76011;BME280;64701;43.536;1.478;2023-08-01T03:37:20;99432.06;;;20.42;78.44
76011;BME280;64701;43.536;1.478;2023-08-01T03:39:46;99441.09;;;20.31;79.24
76011;BME280;64701;43.536;1.478;2023-08-01T03:42:11;99437.81;;;20.24;80.04
76011;BME280;64701;43.536;1.478;2023-08-01T03:44:36;99440.50;;;20.24;78.87
76011;BME280;64701;43.536;1.478;2023-08-01T03:47:02;99444.03;;;20.29;78.42
76011;BME280;64701;43.536;1.478;2023-08-01T03:49:27;99435.72;;;20.31;79.05
76011;BME280;64701;43.536;1.478;2023-08-01T03:51:52;99429.03;;;20.33;78.37
76011;BME280;64701;43.536;1.478;2023-08-01T03:54:17;99425.03;;;20.36;78.10
76011;BME280;64701;43.536;1.478;2023-08-01T03:56:43;99416.13;;;20.35;79.04
76011;BME280;64701;43.536;1.478;2023-08-01T03:59:12;99418.06;;;20.40;77.05
76011;BME280;64701;43.536;1.478;2023-08-01T04:01:38;99415.91;;;20.42;77.72
76011;BME280;64701;43.536;1.478;2023-08-01T04:04:03;99420.75;;;20.40;78.54
76011;BME280;64701;43.536;1.478;2023-08-01T04:06:28;99420.75;;;20.40;77.67
76011;BME280;64701;43.536;1.478;2023-08-01T04:08:53;99427.72;;;20.36;79.73
76011;BME280;64701;43.536;1.478;2023-08-01T04:11:21;99427.72;;;20.36;78.58
76011;BME280;64701;43.536;1.478;2023-08-01T04:13:46;99435.25;;;20.39;77.69
76011;BME280;64701;43.536;1.478;2023-08-01T04:16:12;99431.50;;;20.40;78.21
76011;BME280;64701;43.536;1.478;2023-08-01T04:18:37;99433.16;;;20.46;77.50
76011;BME280;64701;43.536;1.478;2023-08-01T04:21:02;99433.97;;;20.47;78.20
76011;BME280;64701;43.536;1.478;2023-08-01T04:23:27;99427.22;;;20.44;78.82
76011;BME280;64701;43.536;1.478;2023-08-01T04:25:53;99444.91;;;20.35;80.14
76011;BME280;64701;43.536;1.478;2023-08-01T04:28:18;99432.72;;;20.27;81.14
76011;BME280;64701;43.536;1.478;2023-08-01T04:30:48;99423.97;;;20.37;78.59
76011;BME280;64701;43.536;1.478;2023-08-01T04:33:13;99420.47;;;20.36;79.61
76011;BME280;64701;43.536;1.478;2023-08-01T04:35:38;99418.56;;;20.37;79.29
76011;BME280;64701;43.536;1.478;2023-08-01T04:38:03;99412.06;;;20.33;79.84
76011;BME280;64701;43.536;1.478;2023-08-01T04:40:29;99403.75;;;20.34;79.77
76011;BME280;64701;43.536;1.478;2023-08-01T04:42:54;99410.66;;;20.25;80.08
76011;BME280;64701;43.536;1.478;2023-08-01T04:45:20;99418.16;;;20.23;80.97
76011;BME280;64701;43.536;1.478;2023-08-01T04:47:45;99424.31;;;20.19;81.67
76011;BME280;64701;43.536;1.478;2023-08-01T04:50:10;99424.81;;;20.16;81.17
76011;BME280;64701;43.536;1.478;2023-08-01T04:52:35;99420.00;;;20.18;82.05
76011;BME280;64701;43.536;1.478;2023-08-01T04:55:01;99430.75;;;20.18;81.64
76011;BME280;64701;43.536;1.478;2023-08-01T04:57:26;99430.22;;;20.21;80.82
76011;BME280;64701;43.536;1.478;2023-08-01T04:59:51;99433.47;;;20.23;81.53
76011;BME280;64701;43.536;1.478;2023-08-01T05:02:17;99432.44;;;20.24;82.04
76011;BME280;64701;43.536;1.478;2023-08-01T05:04:42;99433.53;;;20.28;80.69
76011;BME280;64701;43.536;1.478;2023-08-01T05:07:07;99431.41;;;20.30;79.96
76011;BME280;64701;43.536;1.478;2023-08-01T05:09:33;99423.31;;;20.30;78.90
76011;BME280;64701;43.536;1.478;2023-08-01T05:11:58;99427.91;;;20.29;78.93
76011;BME280;64701;43.536;1.478;2023-08-01T05:14:23;99428.97;;;20.28;78.73
76011;BME280;64701;43.536;1.478;2023-08-01T05:16:49;99431.84;;;20.22;80.01
76011;BME280;64701;43.536;1.478;2023-08-01T05:19:14;99424.03;;;20.20;79.11
76011;BME280;64701;43.536;1.478;2023-08-01T05:21:39;99423.69;;;20.07;82.12
76011;BME280;64701;43.536;1.478;2023-08-01T05:24:04;99424.22;;;20.09;80.16
76011;BME280;64701;43.536;1.478;2023-08-01T05:26:30;99432.81;;;20.06;80.96
76011;BME280;64701;43.536;1.478;2023-08-01T05:28:55;99438.75;;;20.08;80.45
76011;BME280;64701;43.536;1.478;2023-08-01T05:31:20;99447.31;;;20.05;81.66
76011;BME280;64701;43.536;1.478;2023-08-01T05:33:45;99448.38;;;20.04;81.86
76011;BME280;64701;43.536;1.478;2023-08-01T05:36:11;99439.75;;;20.02;82.07
76011;BME280;64701;43.536;1.478;2023-08-01T05:38:36;99434.91;;;20.04;81.09
76011;BME280;64701;43.536;1.478;2023-08-01T05:41:01;99438.75;;;20.08;80.68
76011;BME280;64701;43.536;1.478;2023-08-01T05:43:27;99437.41;;;20.10;80.14
76011;BME280;64701;43.536;1.478;2023-08-01T05:45:52;99432.81;;;20.06;82.18
76011;BME280;64701;43.536;1.478;2023-08-01T05:48:17;99428.00;;;20.08;82.10
76011;BME280;64701;43.536;1.478;2023-08-01T05:50:43;99436.06;;;20.08;80.85
76011;BME280;64701;43.536;1.478;2023-08-01T05:53:08;99431.78;;;20.12;81.13
76011;BME280;64701;43.536;1.478;2023-08-01T05:55:33;99424.28;;;20.14;80.35
76011;BME280;64701;43.536;1.478;2023-08-01T05:57:58;99438.81;;;20.18;81.21
76011;BME280;64701;43.536;1.478;2023-08-01T06:00:24;99441.00;;;20.21;80.48
76011;BME280;64701;43.536;1.478;2023-08-01T06:02:49;99446.88;;;20.18;81.79
76011;BME280;64701;43.536;1.478;2023-08-01T06:05:14;99439.38;;;20.20;81.58
76011;BME280;64701;43.536;1.478;2023-08-01T06:07:40;99441.00;;;20.21;81.09
76011;BME280;64701;43.536;1.478;2023-08-01T06:10:05;99436.41;;;20.21;80.28
76011;BME280;64701;43.536;1.478;2023-08-01T06:12:31;99426.28;;;20.28;79.75
76011;BME280;64701;43.536;1.478;2023-08-01T06:14:56;99427.16;;;20.34;79.58
76011;BME280;64701;43.536;1.478;2023-08-01T06:17:21;99425.03;;;20.36;79.71
76011;BME280;64701;43.536;1.478;2023-08-01T06:19:46;99433.63;;;20.38;79.68
76011;BME280;64701;43.536;1.478;2023-08-01T06:22:12;99432.88;;;20.43;79.18
76011;BME280;64701;43.536;1.478;2023-08-01T06:24:37;99426.44;;;20.44;79.89
76011;BME280;64701;43.536;1.478;2023-08-01T06:27:03;99423.22;;;20.47;78.95
76011;BME280;64701;43.536;1.478;2023-08-01T06:29:28;99422.16;;;20.48;79.84
76011;BME280;64701;43.536;1.478;2023-08-01T06:31:53;99414.06;;;20.48;79.48
76011;BME280;64701;43.536;1.478;2023-08-01T06:34:19;99412.22;;;20.53;78.67
76011;BME280;64701;43.536;1.478;2023-08-01T06:36:44;99414.94;;;20.58;78.31
76011;BME280;64701;43.536;1.478;2023-08-01T06:39:09;99417.13;;;20.61;78.54
76011;BME280;64701;43.536;1.478;2023-08-01T06:41:35;99407.44;;;20.60;78.48
76011;BME280;64701;43.536;1.478;2023-08-01T06:44:01;99399.91;;;20.62;78.33
76011;BME280;64701;43.536;1.478;2023-08-01T06:46:26;99401.78;;;20.62;78.81
76011;BME280;64701;43.536;1.478;2023-08-01T06:48:51;99402.66;;;20.67;77.98
76011;BME280;64701;43.536;1.478;2023-08-01T06:51:17;99402.66;;;20.67;78.73
76011;BME280;64701;43.536;1.478;2023-08-01T06:53:42;99402.38;;;20.69;77.83
76011;BME280;64701;43.536;1.478;2023-08-01T06:56:07;99398.03;;;20.68;78.13
76011;BME280;64701;43.536;1.478;2023-08-01T06:58:33;99398.59;;;20.65;78.54
76011;BME280;64701;43.536;1.478;2023-08-01T07:00:58;99402.34;;;20.64;78.16
76011;BME280;64701;43.536;1.478;2023-08-01T07:03:23;99400.47;;;20.64;77.95
76011;BME280;64701;43.536;1.478;2023-08-01T07:05:49;99393.19;;;20.65;77.52
76011;BME280;64701;43.536;1.478;2023-08-01T07:08:14;99392.41;;;20.69;77.50
76011;BME280;64701;43.536;1.478;2023-08-01T07:10:39;99393.00;;;20.76;77.19
76011;BME280;64701;43.536;1.478;2023-08-01T07:13:04;99380.69;;;20.91;76.88
76011;BME280;64701;43.536;1.478;2023-08-01T07:15:30;99372.91;;;20.99;76.18
76011;BME280;64701;43.536;1.478;2023-08-01T07:17:56;99376.44;;;21.05;76.16
76011;BME280;64701;43.536;1.478;2023-08-01T07:20:22;99370.81;;;21.11;74.02
76011;BME280;64701;43.536;1.478;2023-08-01T07:22:47;99371.41;;;21.18;73.58
76011;BME280;64701;43.536;1.478;2023-08-01T07:25:12;99368.94;;;21.12;73.63
76011;BME280;64701;43.536;1.478;2023-08-01T07:27:37;99367.91;;;21.23;73.44
76011;BME280;64701;43.536;1.478;2023-08-01T07:30:03;99360.16;;;21.32;73.03
76011;BME280;64701;43.536;1.478;2023-08-01T07:32:29;99366.88;;;21.39;73.30
76011;BME280;64701;43.536;1.478;2023-08-01T07:34:54;99369.06;;;21.47;72.08
76011;BME280;64701;43.536;1.478;2023-08-01T07:37:19;99368.25;;;21.57;71.25
76011;BME280;64701;43.536;1.478;2023-08-01T07:39:45;99370.19;;;21.62;69.75
76011;BME280;64701;43.536;1.478;2023-08-01T07:42:10;99371.25;;;21.61;68.92
76011;BME280;64701;43.536;1.478;2023-08-01T07:44:35;99376.66;;;21.76;69.57
76011;BME280;64701;43.536;1.478;2023-08-01T07:47:00;99374.25;;;21.84;69.42
76011;BME280;64701;43.536;1.478;2023-08-01T07:49:26;99367.47;;;21.87;69.23
76011;BME280;64701;43.536;1.478;2023-08-01T07:51:51;99372.91;;;21.92;69.26
76011;BME280;64701;43.536;1.478;2023-08-01T07:54:16;99369.38;;;21.81;69.95
76011;BME280;64701;43.536;1.478;2023-08-01T07:56:42;99360.22;;;21.82;70.03
76011;BME280;64701;43.536;1.478;2023-08-01T07:59:08;99368.28;;;21.87;71.29
76011;BME280;64701;43.536;1.478;2023-08-01T08:01:35;99368.03;;;21.94;72.33
76011;BME280;64701;43.536;1.478;2023-08-01T08:04:00;99363.72;;;21.93;72.94
76011;BME280;64701;43.536;1.478;2023-08-01T08:06:25;99358.91;;;22.00;72.88
76011;BME280;64701;43.536;1.478;2023-08-01T08:08:51;99352.97;;;22.08;73.25
76011;BME280;64701;43.536;1.478;2023-08-01T08:11:16;99356.75;;;22.07;74.49
76011;BME280;64701;43.536;1.478;2023-08-01T08:13:42;99350.53;;;22.07;74.80
76011;BME280;64701;43.536;1.478;2023-08-01T08:16:07;99345.44;;;22.10;74.38
76011;BME280;64701;43.536;1.478;2023-08-01T08:18:32;99344.59;;;22.20;73.85
76011;BME280;64701;43.536;1.478;2023-08-01T08:20:57;99347.56;;;22.28;72.92
76011;BME280;64701;43.536;1.478;2023-08-01T08:23:23;99347.53;;;22.38;73.31
76011;BME280;64701;43.536;1.478;2023-08-01T08:25:48;99343.75;;;22.50;72.36
76011;BME280;64701;43.536;1.478;2023-08-01T08:28:14;99348.84;;;22.61;71.88
76011;BME280;64701;43.536;1.478;2023-08-01T08:30:40;99334.25;;;22.67;71.99
76011;BME280;64701;43.536;1.478;2023-08-01T08:33:05;99341.53;;;22.62;71.86
76011;BME280;64701;43.536;1.478;2023-08-01T08:35:32;99346.94;;;22.62;71.19
76011;BME280;64701;43.536;1.478;2023-08-01T08:37:58;99338.28;;;22.65;70.92
76011;BME280;64701;43.536;1.478;2023-08-01T08:40:23;99344.50;;;22.65;70.61
76011;BME280;64701;43.536;1.478;2023-08-01T08:42:49;99348.84;;;22.61;71.03
76011;BME280;64701;43.536;1.478;2023-08-01T08:45:15;99349.66;;;22.57;71.83
76011;BME280;64701;43.536;1.478;2023-08-01T08:47:43;99343.69;;;22.60;72.06
76011;BME280;64701;43.536;1.478;2023-08-01T08:50:09;99343.16;;;22.63;72.09
76011;BME280;64701;43.536;1.478;2023-08-01T08:52:35;99344.78;;;22.54;72.78
76011;BME280;64701;43.536;1.478;2023-08-01T08:55:01;99343.75;;;22.50;73.20
76011;BME280;64701;43.536;1.478;2023-08-01T08:57:27;99339.97;;;22.51;72.87
76011;BME280;64701;43.536;1.478;2023-08-01T08:59:54;99342.69;;;22.46;73.75
76011;BME280;64701;43.536;1.478;2023-08-01T09:02:20;99340.47;;;22.53;73.51
76011;BME280;64701;43.536;1.478;2023-08-01T09:04:46;99346.41;;;22.55;73.09
76011;BME280;64701;43.536;1.478;2023-08-01T09:07:11;99335.38;;;22.51;73.28
76011;BME280;64701;43.536;1.478;2023-08-01T09:09:39;99330.22;;;22.55;73.72
76011;BME280;64701;43.536;1.478;2023-08-01T09:12:04;99313.75;;;22.61;73.64
76011;BME280;64701;43.536;1.478;2023-08-01T09:14:29;99307.50;;;22.71;73.67
76011;BME280;64701;43.536;1.478;2023-08-01T09:17:05;99316.91;;;22.84;73.56
76011;BME280;64701;43.536;1.478;2023-08-01T09:19:30;99308.25;;;22.92;73.82
76011;BME280;64701;43.536;1.478;2023-08-01T09:21:55;99310.63;;;23.03;73.62
76011;BME280;64701;43.536;1.478;2023-08-01T09:24:21;99312.19;;;23.14;73.12
76011;BME280;64701;43.536;1.478;2023-08-01T09:26:47;99318.63;;;23.18;72.89
76011;BME280;64701;43.536;1.478;2023-08-01T09:29:13;99312.13;;;23.25;72.54
76011;BME280;64701;43.536;1.478;2023-08-01T09:31:39;99308.38;;;23.20;74.12
76011;BME280;64701;43.536;1.478;2023-08-01T09:34:17;99307.22;;;23.32;72.21
76011;BME280;64701;43.536;1.478;2023-08-01T09:36:42;99309.72;;;23.18;73.40
76011;BME280;64701;43.536;1.478;2023-08-01T09:39:07;99310.25;;;23.20;73.21
76011;BME280;64701;43.536;1.478;2023-08-01T09:41:33;99307.78;;;23.29;72.73
76011;BME280;64701;43.536;1.478;2023-08-01T09:43:58;99298.66;;;23.19;72.58
76011;BME280;64701;43.536;1.478;2023-08-01T09:46:23;99303.47;;;23.28;72.32
76011;BME280;64701;43.536;1.478;2023-08-01T09:48:49;99300.22;;;23.26;72.13
76011;BME280;64701;43.536;1.478;2023-08-01T09:51:15;99312.69;;;23.22;72.33
76011;BME280;64701;43.536;1.478;2023-08-01T09:53:54;99305.91;;;23.29;72.34
76011;BME280;64701;43.536;1.478;2023-08-01T09:56:20;99313.69;;;23.31;72.57
76011;BME280;64701;43.536;1.478;2023-08-01T09:58:46;99309.38;;;23.35;72.04
76011;BME280;64701;43.536;1.478;2023-08-01T10:01:12;99307.44;;;23.40;71.87
76011;BME280;64701;43.536;1.478;2023-08-01T10:03:38;99297.94;;;23.43;72.58
76011;BME280;64701;43.536;1.478;2023-08-01T10:06:05;99304.47;;;23.47;72.43
76011;BME280;64701;43.536;1.478;2023-08-01T10:08:30;99298.44;;;23.55;71.86
76011;BME280;64701;43.536;1.478;2023-08-01T10:10:58;99298.06;;;23.67;71.95
76011;BME280;64701;43.536;1.478;2023-08-01T10:13:23;99297.44;;;23.80;70.86
76011;BME280;64701;43.536;1.478;2023-08-01T10:15:49;99294.09;;;23.93;71.03
76011;BME280;64701;43.536;1.478;2023-08-01T10:18:15;99299.09;;;24.05;70.42
76011;BME280;64701;43.536;1.478;2023-08-01T10:20:41;99303.78;;;24.28;69.74
76011;BME280;64701;43.536;1.478;2023-08-01T10:23:07;99300.53;;;24.55;69.24
76011;BME280;64701;43.536;1.478;2023-08-01T10:25:32;99297.97;;;24.63;68.65
76011;BME280;64701;43.536;1.478;2023-08-01T10:27:58;99303.22;;;24.78;68.23
76011;BME280;64701;43.536;1.478;2023-08-01T10:30:27;99300.78;;;25.01;68.13
76011;BME280;64701;43.536;1.478;2023-08-01T10:32:54;99303.19;;;25.21;68.14
76011;BME280;64701;43.536;1.478;2023-08-01T10:35:19;99305.16;;;25.34;66.69
76011;BME280;64701;43.536;1.478;2023-08-01T10:37:45;99305.97;;;25.35;66.61
76011;BME280;64701;43.536;1.478;2023-08-01T10:40:14;99308.84;;;25.25;66.63
76011;BME280;64701;43.536;1.478;2023-08-01T10:42:42;99311.69;;;25.33;66.66
76011;BME280;64701;43.536;1.478;2023-08-01T10:45:18;99310.84;;;25.38;66.56
76011;BME280;64701;43.536;1.478;2023-08-01T10:47:45;99310.44;;;25.44;66.56
76011;BME280;64701;43.536;1.478;2023-08-01T10:50:14;99313.31;;;25.53;66.44
76011;BME280;64701;43.536;1.478;2023-08-01T10:52:40;99303.78;;;25.55;66.60
76011;BME280;64701;43.536;1.478;2023-08-01T10:55:05;99306.16;;;25.62;65.73
76011;BME280;64701;43.536;1.478;2023-08-01T10:57:31;99304.44;;;25.47;65.46
76011;BME280;64701;43.536;1.478;2023-08-01T10:59:57;99312.94;;;25.22;66.50
76011;BME280;64701;43.536;1.478;2023-08-01T11:02:23;99321.66;;;25.19;66.94
76011;BME280;64701;43.536;1.478;2023-08-01T11:05:02;99312.06;;;25.08;68.31
76011;BME280;64701;43.536;1.478;2023-08-01T11:07:28;99325.38;;;25.04;70.18
76011;BME280;64701;43.536;1.478;2023-08-01T11:10:09;99330.19;;;24.89;71.33
76011;BME280;64701;43.536;1.478;2023-08-01T11:12:42;99319.41;;;24.84;70.40
76011;BME280;64701;43.536;1.478;2023-08-01T11:15:08;99329.13;;;24.85;70.73
76011;BME280;64701;43.536;1.478;2023-08-01T11:17:37;99326.38;;;24.90;70.40
76011;BME280;64701;43.536;1.478;2023-08-01T11:20:04;99325.38;;;24.80;70.58
76011;BME280;64701;43.536;1.478;2023-08-01T11:22:30;99329.25;;;24.74;70.73
76011;BME280;64701;43.536;1.478;2023-08-01T11:24:55;99337.38;;;24.74;70.96
76011;BME280;64701;43.536;1.478;2023-08-01T11:27:21;99335.59;;;24.89;70.44
76011;BME280;64701;43.536;1.478;2023-08-01T11:29:46;99332.84;;;24.94;70.46
76011;BME280;64701;43.536;1.478;2023-08-01T11:32:11;99327.94;;;24.96;70.27
76011;BME280;64701;43.536;1.478;2023-08-01T11:34:41;99335.94;;;24.82;70.94
76011;BME280;64701;43.536;1.478;2023-08-01T11:37:08;99334.56;;;24.85;70.50
76011;BME280;64701;43.536;1.478;2023-08-01T11:39:34;99335.47;;;24.75;71.56
76011;BME280;64701;43.536;1.478;2023-08-01T11:41:59;99342.78;;;24.74;71.74
76011;BME280;64701;43.536;1.478;2023-08-01T11:44:25;99337.72;;;24.68;72.06
76011;BME280;64701;43.536;1.478;2023-08-01T11:46:51;99340.88;;;24.75;72.37
76011;BME280;64701;43.536;1.478;2023-08-01T11:49:16;99339.19;;;25.03;71.34
76011;BME280;64701;43.536;1.478;2023-08-01T11:51:42;99319.91;;;25.28;70.42
76011;BME280;64701;43.536;1.478;2023-08-01T11:54:08;99323.34;;;25.52;69.15
76011;BME280;64701;43.536;1.478;2023-08-01T11:56:35;99329.28;;;25.73;68.38
76011;BME280;64701;43.536;1.478;2023-08-01T11:59:07;99323.56;;;25.75;68.21
76011;BME280;64701;43.536;1.478;2023-08-01T12:01:37;99321.44;;;25.72;67.87
76011;BME280;64701;43.536;1.478;2023-08-01T12:04:02;99323.84;;;25.54;67.91
76011;BME280;64701;43.536;1.478;2023-08-01T12:06:30;99329.84;;;25.33;67.93
76011;BME280;64701;43.536;1.478;2023-08-01T12:08:56;99327.00;;;25.24;68.38
76011;BME280;64701;43.536;1.478;2023-08-01T12:11:30;99328.97;;;25.18;68.07
76011;BME280;64701;43.536;1.478;2023-08-01T12:14:07;99331.59;;;25.05;68.84
76011;BME280;64701;43.536;1.478;2023-08-01T12:16:34;99329.50;;;25.02;69.28
76011;BME280;64701;43.536;1.478;2023-08-01T12:19:00;99336.56;;;24.98;69.44
76011;BME280;64701;43.536;1.478;2023-08-01T12:21:25;99346.47;;;25.07;69.13
76011;BME280;64701;43.536;1.478;2023-08-01T12:23:50;99349.69;;;24.86;71.59
76011;BME280;64701;43.536;1.478;2023-08-01T12:26:16;99350.56;;;24.81;73.50
76011;BME280;64701;43.536;1.478;2023-08-01T12:28:41;99346.53;;;24.78;74.62
76011;BME280;64701;43.536;1.478;2023-08-01T12:31:06;99351.84;;;24.89;76.40
76011;BME280;64701;43.536;1.478;2023-08-01T12:33:34;99344.78;;;24.88;77.94
76011;BME280;64701;43.536;1.478;2023-08-01T12:36:00;99347.47;;;24.93;76.68
76011;BME280;64701;43.536;1.478;2023-08-01T12:38:26;99352.47;;;24.80;76.77
76011;BME280;64701;43.536;1.478;2023-08-01T12:40:51;99346.06;;;24.71;76.43
76011;BME280;64701;43.536;1.478;2023-08-01T12:43:16;99353.66;;;24.69;76.10
76011;BME280;64701;43.536;1.478;2023-08-01T12:45:42;99349.13;;;24.65;77.30
76011;BME280;64701;43.536;1.478;2023-08-01T12:48:07;99349.06;;;24.70;76.47
76011;BME280;64701;43.536;1.478;2023-08-01T12:50:32;99356.31;;;24.74;76.95
76011;BME280;64701;43.536;1.478;2023-08-01T12:52:58;99350.22;;;24.88;76.49